createdAt,value
2022-12-13T00:01:58.188Z,42.20
2022-12-13T00:04:25.459Z,50.90
2022-12-13T00:06:52.746Z,47.20
2022-12-13T00:09:19.916Z,47.30
2022-12-13T00:11:46.521Z,42.40
2022-12-13T00:14:13.580Z,37.40
2022-12-13T00:16:40.959Z,35.30
2022-12-13T00:19:07.480Z,30.20
2022-12-13T00:21:34.343Z,44.10
2022-12-13T00:24:01.694Z,53.20
2022-12-13T00:26:32.843Z,61.10
2022-12-13T00:29:00.939Z,54.00
2022-12-13T00:31:58.552Z,52.50
2022-12-13T00:34:15.058Z,61.10
2022-12-13T00:36:41.643Z,63.30
2022-12-13T00:39:08.382Z,62.30
2022-12-13T00:41:36.059Z,46.80
2022-12-13T00:44:04.419Z,43.50
2022-12-13T00:46:31.239Z,42.10
2022-12-13T00:49:00.065Z,35.70
2022-12-13T00:51:28.833Z,23.90
2022-12-13T00:53:56.017Z,27.10
2022-12-13T00:56:25.112Z,25.80
2022-12-13T00:58:52.678Z,25.10
2022-12-13T01:01:24.565Z,24.50
2022-12-13T01:03:54.058Z,22.00
2022-12-13T01:06:25.607Z,22.50
2022-12-13T01:11:19.116Z,24.40
2022-12-13T01:13:46.255Z,22.40
2022-12-13T01:16:13.971Z,23.90
2022-12-13T01:18:41.412Z,31.60
2022-12-13T01:21:16.420Z,31.10
2022-12-13T01:23:43.908Z,27.30
2022-12-13T01:26:15.973Z,28.30
2022-12-13T01:28:43.216Z,26.30
2022-12-13T01:31:13.323Z,25.80
2022-12-13T01:33:40.510Z,28.00
2022-12-13T01:36:14.718Z,22.80
2022-12-13T01:38:41.487Z,24.20
2022-12-13T01:41:17.120Z,21.70
2022-12-13T01:43:44.488Z,24.20
2022-12-13T01:46:12.874Z,25.20
2022-12-13T01:48:47.346Z,27.00
2022-12-13T01:51:17.537Z,24.20
2022-12-13T01:53:46.844Z,23.70
2022-12-13T01:56:23.328Z,25.70
2022-12-13T01:58:52.419Z,20.30
2022-12-13T02:01:19.472Z,43.10
2022-12-13T02:03:46.407Z,42.70
2022-12-13T02:06:38.863Z,32.90
2022-12-13T02:09:07.443Z,34.90
2022-12-13T02:11:40.721Z,23.70
2022-12-13T02:14:07.257Z,22.90
2022-12-13T02:17:06.184Z,43.70
2022-12-13T02:20:21.644Z,24.70
2022-12-13T02:22:57.945Z,32.70
2022-12-13T02:26:02.065Z,22.40
2022-12-13T02:28:37.391Z,20.60
2022-12-13T02:31:14.952Z,22.70
2022-12-13T02:33:52.901Z,21.80
2022-12-13T02:36:36.697Z,23.50
2022-12-13T02:39:11.706Z,19.60
2022-12-13T02:41:46.741Z,17.60
2022-12-13T02:44:34.779Z,18.90
2022-12-13T02:47:21.977Z,19.70
2022-12-13T02:49:52.841Z,20.40
2022-12-13T02:52:22.977Z,19.10
2022-12-13T02:54:49.626Z,21.30
2022-12-13T02:57:29.812Z,16.10
2022-12-13T03:00:00.081Z,18.30
2022-12-13T03:02:35.322Z,20.80
2022-12-13T03:05:04.626Z,17.70
2022-12-13T03:07:50.725Z,18.40
2022-12-13T03:10:33.049Z,15.70
2022-12-13T03:13:08.668Z,16.50
2022-12-13T03:15:35.044Z,17.90
2022-12-13T03:18:09.685Z,16.50
2022-12-13T03:20:36.455Z,17.40
2022-12-13T03:23:02.920Z,16.40
2022-12-13T03:25:32.656Z,18.80
2022-12-13T03:28:02.011Z,20.00
2022-12-13T03:30:30.256Z,16.60
2022-12-13T03:32:57.012Z,16.80
2022-12-13T03:35:23.793Z,12.60
2022-12-13T03:37:51.217Z,13.60
2022-12-13T03:40:19.767Z,10.30
2022-12-13T03:42:46.972Z,10.90
2022-12-13T03:45:14.114Z,13.20
2022-12-13T03:47:40.974Z,11.70
2022-12-13T03:50:26.066Z,10.50
2022-12-13T03:53:01.910Z,9.00
2022-12-13T03:55:29.029Z,10.80
2022-12-13T03:57:55.739Z,10.00
2022-12-13T04:00:22.334Z,8.90
2022-12-13T04:02:48.819Z,9.90
2022-12-13T04:05:16.056Z,11.60
2022-12-13T04:07:47.959Z,10.40
2022-12-13T04:10:26.415Z,9.70
2022-12-13T04:12:54.712Z,9.20
2022-12-13T04:15:27.478Z,12.50
2022-12-13T04:17:53.872Z,12.50
2022-12-13T04:20:20.393Z,12.10
2022-12-13T04:22:46.801Z,10.50
2022-12-13T04:25:13.511Z,11.70
2022-12-13T04:27:40.414Z,10.20
2022-12-13T04:30:07.820Z,10.50
2022-12-13T04:32:34.372Z,9.80
2022-12-13T04:35:01.754Z,11.70
2022-12-13T04:37:29.307Z,13.20
2022-12-13T04:40:00.593Z,14.80
2022-12-13T04:42:28.189Z,11.40
2022-12-13T04:44:54.675Z,11.10
2022-12-13T04:47:21.106Z,11.80
2022-12-13T04:49:47.641Z,12.50
2022-12-13T04:52:14.069Z,10.00
2022-12-13T04:54:55.899Z,12.10
2022-12-13T04:57:23.958Z,12.40
2022-12-13T04:59:50.465Z,11.20
2022-12-13T05:02:24.089Z,9.30
2022-12-13T05:04:53.520Z,12.50
2022-12-13T05:07:21.785Z,10.80
2022-12-13T05:09:48.433Z,11.70
2022-12-13T05:12:22.371Z,10.20
2022-12-13T05:14:49.571Z,10.40
2022-12-13T05:17:16.028Z,10.10
2022-12-13T05:19:42.574Z,11.10
2022-12-13T05:22:13.579Z,14.70
2022-12-13T05:24:44.453Z,14.20
2022-12-13T05:27:25.408Z,22.80
2022-12-13T05:30:03.067Z,11.50
2022-12-13T05:32:43.391Z,22.90
2022-12-13T05:35:22.125Z,20.20
2022-12-13T05:37:55.072Z,27.10
2022-12-13T05:42:49.104Z,22.50
2022-12-13T05:45:17.994Z,21.80
2022-12-13T05:47:44.728Z,21.20
2022-12-13T05:50:12.439Z,18.00
2022-12-13T05:52:39.252Z,20.30
2022-12-13T05:55:06.544Z,21.30
2022-12-13T05:57:32.980Z,20.40
2022-12-13T06:00:01.054Z,16.50
2022-12-13T06:02:28.233Z,18.40
2022-12-13T06:04:54.740Z,33.30
2022-12-13T06:07:21.207Z,35.50
2022-12-13T06:09:47.779Z,29.80
2022-12-13T06:12:31.130Z,29.60
2022-12-13T06:15:00.706Z,62.30
2022-12-13T06:17:36.011Z,74.50
2022-12-13T06:20:04.596Z,55.50
2022-12-13T06:22:50.599Z,54.30
2022-12-13T06:25:30.726Z,63.40
2022-12-13T06:28:01.069Z,73.10
2022-12-13T06:30:29.459Z,107.70
2022-12-13T06:32:56.519Z,65.20
2022-12-13T06:35:29.107Z,125.20
2022-12-13T06:38:01.252Z,49.00
2022-12-13T06:40:30.885Z,47.00
2022-12-13T06:42:57.943Z,44.70
2022-12-13T06:45:25.596Z,47.20
2022-12-13T06:47:52.336Z,50.50
2022-12-13T06:50:19.288Z,53.60
2022-12-13T06:52:46.656Z,53.00
2022-12-13T06:55:13.716Z,56.60
2022-12-13T06:57:40.854Z,55.50
2022-12-13T07:00:09.540Z,49.00
2022-12-13T07:02:36.394Z,49.30
2022-12-13T07:05:03.434Z,48.50
2022-12-13T07:07:29.861Z,50.30
2022-12-13T07:09:56.399Z,57.60
2022-12-13T07:12:23.411Z,53.00
2022-12-13T07:14:50.503Z,50.50
2022-12-13T07:17:32.640Z,45.30
2022-12-13T07:20:07.062Z,72.00
2022-12-13T07:22:34.628Z,61.00
2022-12-13T07:25:02.390Z,64.90
2022-12-13T07:27:28.837Z,72.60
2022-12-13T07:29:55.223Z,81.10
2022-12-13T07:32:21.681Z,80.00
2022-12-13T07:34:48.220Z,82.70
2022-12-13T07:37:30.549Z,73.80
2022-12-13T07:40:03.294Z,72.70
2022-12-13T07:42:31.490Z,74.40
2022-12-13T07:44:57.912Z,103.90
2022-12-13T07:47:29.808Z,100.50
2022-12-13T07:49:56.233Z,80.10
2022-12-13T07:52:22.674Z,81.30
2022-12-13T07:54:49.106Z,74.80
2022-12-13T07:57:16.055Z,102.60
2022-12-13T07:59:42.521Z,109.50
2022-12-13T08:02:13.831Z,104.50
2022-12-13T08:04:42.641Z,113.50
2022-12-13T08:07:11.221Z,89.80
2022-12-13T08:09:37.687Z,93.30
2022-12-13T08:12:04.372Z,86.80
2022-12-13T08:14:31.325Z,86.70
2022-12-13T08:16:58.029Z,83.70
2022-12-13T08:19:24.416Z,82.90
2022-12-13T08:22:01.973Z,77.90
2022-12-13T08:24:30.951Z,80.20
2022-12-13T08:26:59.328Z,83.10
2022-12-13T08:29:34.276Z,86.90
2022-12-13T08:32:05.307Z,73.90
2022-12-13T08:34:31.877Z,66.90
2022-12-13T08:37:01.873Z,65.50
2022-12-13T08:39:34.002Z,71.70
2022-12-13T08:42:15.903Z,116.10
2022-12-13T08:44:49.102Z,123.70
2022-12-13T08:47:23.249Z,120.40
2022-12-13T08:49:50.892Z,114.90
2022-12-13T08:52:17.438Z,119.20
2022-12-13T08:54:43.845Z,110.40
2022-12-13T08:57:10.387Z,114.90
2022-12-13T08:59:36.850Z,113.50
2022-12-13T09:02:05.314Z,114.10
2022-12-13T09:04:32.432Z,104.20
2022-12-13T09:07:01.248Z,112.00
2022-12-13T09:09:29.026Z,124.10
2022-12-13T09:11:59.546Z,106.80
2022-12-13T09:14:27.032Z,108.10
2022-12-13T09:17:03.349Z,115.20
2022-12-13T09:19:37.004Z,118.40
2022-12-13T09:22:05.061Z,116.10
2022-12-13T09:24:36.337Z,118.90
2022-12-13T09:27:09.649Z,114.80
2022-12-13T09:29:37.411Z,103.30
2022-12-13T09:32:04.263Z,109.60
2022-12-13T09:34:30.975Z,97.50
2022-12-13T09:37:01.094Z,90.00
2022-12-13T09:39:29.503Z,86.50
2022-12-13T09:42:01.069Z,58.40
2022-12-13T09:44:43.646Z,67.90
2022-12-13T09:47:27.415Z,62.00
2022-12-13T09:50:14.852Z,68.00
2022-12-13T09:52:44.249Z,61.30
2022-12-13T09:55:24.657Z,45.10
2022-12-13T09:57:52.384Z,48.00
2022-12-13T10:00:21.932Z,40.20
2022-12-13T10:02:51.803Z,41.90
2022-12-13T10:05:34.126Z,38.70
2022-12-13T10:08:16.704Z,34.00
2022-12-13T10:10:44.011Z,24.20
2022-12-13T10:13:19.745Z,28.60
2022-12-13T10:15:54.782Z,26.20
2022-12-13T10:18:35.055Z,23.70
2022-12-13T10:21:22.116Z,23.20
2022-12-13T10:26:39.431Z,23.80
2022-12-13T10:29:07.394Z,25.90
2022-12-13T10:31:46.132Z,24.90
2022-12-13T10:34:25.271Z,25.10
2022-12-13T10:36:52.099Z,25.70
2022-12-13T10:39:42.613Z,26.30
2022-12-13T10:42:23.634Z,43.90
2022-12-13T10:45:23.676Z,38.60
2022-12-13T10:47:51.066Z,41.50
2022-12-13T10:50:30.038Z,38.00
2022-12-13T10:52:59.316Z,41.90
2022-12-13T10:55:35.559Z,34.90
2022-12-13T10:58:05.288Z,31.80
2022-12-13T11:00:37.150Z,33.70
2022-12-13T11:03:04.684Z,33.30
2022-12-13T11:05:33.585Z,34.00
2022-12-13T11:08:22.745Z,40.20
2022-12-13T11:11:00.095Z,33.30
2022-12-13T11:13:34.733Z,35.80
2022-12-13T11:16:01.890Z,42.30
2022-12-13T11:18:35.666Z,45.30
2022-12-13T11:21:05.314Z,43.60
2022-12-13T11:23:36.729Z,41.50
2022-12-13T11:26:10.524Z,43.90
2022-12-13T11:29:01.762Z,50.00
2022-12-13T11:32:09.993Z,47.70
2022-12-13T11:34:55.563Z,47.90
2022-12-13T11:37:42.992Z,47.20
2022-12-13T11:40:16.907Z,39.60
2022-12-13T11:42:49.831Z,40.70
2022-12-13T11:45:24.526Z,43.80
2022-12-13T11:48:02.123Z,44.30
2022-12-13T11:50:37.082Z,41.30
2022-12-13T11:53:12.505Z,37.30
2022-12-13T11:55:50.703Z,40.70
2022-12-13T11:59:01.121Z,42.90
2022-12-13T12:01:43.610Z,31.30
2022-12-13T12:04:30.299Z,38.10
2022-12-13T12:07:31.319Z,45.70
2022-12-13T12:10:03.349Z,28.90
2022-12-13T12:12:35.527Z,36.10
2022-12-13T12:15:16.254Z,26.50
2022-12-13T12:17:43.848Z,22.90
2022-12-13T12:20:23.154Z,19.50
2022-12-13T12:23:00.103Z,14.30
2022-12-13T12:25:45.246Z,13.30
2022-12-13T12:28:44.608Z,15.00
2022-12-13T12:31:20.102Z,15.00
2022-12-13T12:34:02.317Z,15.60
2022-12-13T12:36:37.596Z,17.80
2022-12-13T12:39:26.342Z,37.80
2022-12-13T12:42:56.498Z,15.60
2022-12-13T12:45:56.397Z,15.80
2022-12-13T12:49:02.921Z,15.90
2022-12-13T12:51:48.236Z,18.80
2022-12-13T12:54:42.431Z,33.90
2022-12-13T12:57:22.273Z,26.70
2022-12-13T13:00:19.466Z,25.00
2022-12-13T13:02:51.483Z,29.20
2022-12-13T13:05:28.674Z,21.30
2022-12-13T13:08:04.520Z,20.10
2022-12-13T13:10:32.009Z,30.80
2022-12-13T13:13:12.373Z,35.90
2022-12-13T13:15:39.656Z,32.30
2022-12-13T13:18:45.955Z,28.80
2022-12-13T13:21:24.423Z,39.00
2022-12-13T13:24:09.265Z,36.20
2022-12-13T13:26:38.702Z,32.70
2022-12-13T13:29:27.919Z,31.80
2022-12-13T13:32:02.094Z,29.60
2022-12-13T13:34:30.410Z,35.90
2022-12-13T13:36:58.042Z,34.30
2022-12-13T13:39:33.592Z,30.00
2022-12-13T13:42:32.262Z,30.60
2022-12-13T13:45:19.991Z,30.40
2022-12-13T13:48:15.759Z,32.00
2022-12-13T13:50:46.575Z,29.70
2022-12-13T13:53:55.425Z,33.90
2022-12-13T13:56:30.541Z,27.10
2022-12-13T13:59:05.709Z,35.30
2022-12-13T14:01:53.784Z,50.90
2022-12-13T14:04:29.138Z,54.70
2022-12-13T14:07:40.703Z,34.20
2022-12-13T14:10:25.322Z,30.10
2022-12-13T14:13:09.913Z,31.50
2022-12-13T14:15:59.771Z,39.00
2022-12-13T14:18:57.760Z,38.80
2022-12-13T14:21:47.474Z,44.20
2022-12-13T14:24:42.174Z,47.10
2022-12-13T14:27:25.329Z,48.20
2022-12-13T14:29:58.184Z,61.90
2022-12-13T14:32:29.249Z,57.30
2022-12-13T14:34:57.723Z,72.40
2022-12-13T14:37:35.570Z,191.20
2022-12-13T14:40:03.424Z,322.70
2022-12-13T14:42:32.611Z,78.50
2022-12-13T14:45:15.700Z,146.30
2022-12-13T14:47:43.189Z,243.00
2022-12-13T14:50:14.964Z,409.70
2022-12-13T14:52:43.096Z,326.80
2022-12-13T14:55:34.053Z,123.40
2022-12-13T14:58:02.674Z,133.30
2022-12-13T15:00:31.109Z,129.50
2022-12-13T15:03:00.746Z,94.70
2022-12-13T15:05:37.611Z,99.30
2022-12-13T15:08:10.285Z,208.50
2022-12-13T15:10:40.928Z,605.00
2022-12-13T15:13:23.669Z,517.60
2022-12-13T15:16:00.108Z,342.60
2022-12-13T15:18:28.015Z,162.20
2022-12-13T15:20:56.590Z,208.80
2022-12-13T15:23:32.381Z,80.70
2022-12-13T15:26:28.260Z,119.50
2022-12-13T15:29:10.160Z,129.80
2022-12-13T15:31:38.346Z,76.80
2022-12-13T15:34:30.572Z,114.80
2022-12-13T15:37:29.208Z,96.80
2022-12-13T15:40:05.643Z,120.70
2022-12-13T15:42:35.177Z,134.60
2022-12-13T15:45:05.090Z,161.40
2022-12-13T15:47:32.584Z,113.10
2022-12-13T15:50:01.652Z,132.50
2022-12-13T15:52:35.118Z,177.10
2022-12-13T15:55:07.692Z,179.90
2022-12-13T15:57:49.328Z,176.80
2022-12-13T16:03:10.022Z,173.00
2022-12-13T16:05:40.203Z,173.20
2022-12-13T16:08:18.128Z,172.90
2022-12-13T16:10:49.826Z,185.80
2022-12-13T16:13:29.749Z,203.70
2022-12-13T16:16:09.314Z,200.40
2022-12-13T16:18:53.400Z,196.40
2022-12-13T16:21:19.838Z,313.70
2022-12-13T16:23:48.557Z,315.20
2022-12-13T16:26:21.525Z,287.30
2022-12-13T16:28:47.908Z,303.80
2022-12-13T16:31:19.098Z,297.50
2022-12-13T16:33:45.650Z,303.50
2022-12-13T16:36:13.011Z,326.60
2022-12-13T16:38:39.552Z,322.70
2022-12-13T16:41:08.594Z,326.10
2022-12-13T16:43:40.252Z,328.80
2022-12-13T16:47:15.082Z,348.50
2022-12-13T16:48:54.479Z,415.30
2022-12-13T16:51:21.942Z,363.80
2022-12-13T16:53:49.098Z,399.20
2022-12-13T16:56:15.838Z,417.50
2022-12-13T16:58:49.407Z,369.70
2022-12-13T17:01:19.516Z,395.30
2022-12-13T17:03:46.515Z,370.30
2022-12-13T17:06:14.869Z,383.00
2022-12-13T17:08:41.332Z,383.10
2022-12-13T17:11:09.131Z,368.20
2022-12-13T17:13:37.383Z,349.40
2022-12-13T17:16:07.609Z,354.60
2022-12-13T17:18:34.162Z,348.50
2022-12-13T17:21:06.804Z,335.50
2022-12-13T17:23:33.882Z,295.80
2022-12-13T17:26:05.131Z,291.60
2022-12-13T17:28:31.541Z,280.00
2022-12-13T17:31:16.429Z,256.30
2022-12-13T17:33:43.904Z,274.40
2022-12-13T17:36:12.487Z,281.50
2022-12-13T17:38:43.631Z,249.50
2022-12-13T17:41:10.172Z,214.10
2022-12-13T17:43:37.028Z,240.90
2022-12-13T17:46:13.521Z,284.50
2022-12-13T17:48:41.472Z,274.40
2022-12-13T17:51:11.083Z,251.80
2022-12-13T17:53:42.633Z,247.20
2022-12-13T17:58:36.519Z,233.50
2022-12-13T18:01:14.985Z,194.50
2022-12-13T18:03:42.731Z,179.40
2022-12-13T18:06:09.894Z,173.90
2022-12-13T18:08:38.632Z,175.40
2022-12-13T18:13:55.716Z,173.50
2022-12-13T18:16:24.753Z,179.10
2022-12-13T18:18:55.991Z,216.00
2022-12-13T18:21:24.238Z,260.30
2022-12-13T18:23:55.747Z,250.10
2022-12-13T18:26:24.459Z,257.30
2022-12-13T18:28:52.207Z,233.30
2022-12-13T18:31:22.240Z,224.00
2022-12-13T18:33:50.350Z,253.20
2022-12-13T18:36:18.431Z,269.70
2022-12-13T18:38:45.482Z,259.80
2022-12-13T18:41:14.406Z,249.10
2022-12-13T18:43:42.548Z,235.40
2022-12-13T18:46:10.173Z,232.60
2022-12-13T18:48:37.370Z,261.80
2022-12-13T18:51:07.554Z,316.00
2022-12-13T18:53:35.193Z,333.90
2022-12-13T18:56:11.617Z,329.10
2022-12-13T18:58:43.187Z,327.40
2022-12-13T19:01:12.028Z,322.70
2022-12-13T19:03:39.616Z,368.10
2022-12-13T19:06:07.538Z,363.00
2022-12-13T19:08:34.663Z,343.80
2022-12-13T19:11:02.232Z,338.00
2022-12-13T19:13:30.021Z,308.60
2022-12-13T19:15:58.715Z,316.70
2022-12-13T19:18:25.529Z,310.00
2022-12-13T19:20:53.805Z,312.50
2022-12-13T19:23:21.571Z,302.90
2022-12-13T19:25:48.738Z,303.90
2022-12-13T19:28:18.095Z,312.90
2022-12-13T19:30:46.721Z,304.40
2022-12-13T19:33:16.057Z,373.50
2022-12-13T19:35:43.993Z,587.80
2022-12-13T19:38:11.045Z,416.60
2022-12-13T19:40:42.619Z,414.10
2022-12-13T19:45:36.917Z,544.50
2022-12-13T19:48:04.024Z,420.90
2022-12-13T19:50:30.807Z,531.40
2022-12-13T19:52:57.963Z,388.60
2022-12-13T19:55:24.771Z,358.50
2022-12-13T19:57:51.451Z,359.00
2022-12-13T20:00:18.195Z,377.30
2022-12-13T20:02:44.629Z,349.30
2022-12-13T20:05:11.540Z,357.30
2022-12-13T20:07:38.095Z,340.00
2022-12-13T20:10:05.995Z,338.60
2022-12-13T20:12:37.221Z,295.50
2022-12-13T20:15:08.394Z,203.70
2022-12-13T20:17:35.751Z,188.90
2022-12-13T20:20:03.001Z,167.90
2022-12-13T20:22:29.741Z,166.30
2022-12-13T20:24:56.377Z,159.70
2022-12-13T20:27:23.022Z,152.30
2022-12-13T20:29:49.663Z,155.70
2022-12-13T20:32:17.129Z,167.10
2022-12-13T20:34:44.075Z,175.10
2022-12-13T20:37:10.716Z,198.30
2022-12-13T20:39:37.359Z,209.60
2022-12-13T20:42:03.900Z,224.30
2022-12-13T20:44:30.631Z,256.20
2022-12-13T20:46:57.377Z,220.80
2022-12-13T20:49:24.033Z,236.80
2022-12-13T20:51:50.675Z,322.00
2022-12-13T20:54:17.417Z,262.50
2022-12-13T20:56:43.962Z,368.00
2022-12-13T20:59:12.959Z,364.20
2022-12-13T21:01:41.490Z,308.10
2022-12-13T21:04:10.128Z,187.20
2022-12-13T21:06:38.945Z,172.50
2022-12-13T21:09:06.587Z,127.90
2022-12-13T21:11:36.076Z,126.50
2022-12-13T21:14:09.085Z,119.90
2022-12-13T21:16:40.978Z,131.70
2022-12-13T21:19:09.989Z,136.60
2022-12-13T21:21:37.309Z,136.80
2022-12-13T21:24:04.157Z,116.40
2022-12-13T21:26:35.184Z,126.50
2022-12-13T21:29:05.911Z,144.30
2022-12-13T21:31:32.750Z,152.00
2022-12-13T21:34:00.643Z,153.80
2022-12-13T21:36:32.127Z,145.10
2022-12-13T21:41:27.936Z,149.80
2022-12-13T21:43:55.212Z,165.70
2022-12-13T21:46:25.977Z,171.60
2022-12-13T21:48:57.590Z,176.20
2022-12-13T21:51:26.010Z,169.40
2022-12-13T21:53:53.636Z,165.50
2022-12-13T21:56:23.074Z,168.50
2022-12-13T21:58:49.501Z,175.70
2022-12-13T22:01:15.996Z,156.50
2022-12-13T22:03:42.497Z,163.20
2022-12-13T22:06:09.242Z,165.40
2022-12-13T22:08:35.783Z,182.30
2022-12-13T22:11:02.160Z,178.20
2022-12-13T22:13:28.871Z,172.00
2022-12-13T22:15:55.306Z,189.00
2022-12-13T22:18:22.015Z,167.80
2022-12-13T22:20:58.633Z,173.00
2022-12-13T22:23:25.171Z,174.20
2022-12-13T22:25:51.590Z,182.10
2022-12-13T22:28:18.050Z,164.60
2022-12-13T22:30:44.586Z,177.00
2022-12-13T22:33:11.037Z,229.50
2022-12-13T22:35:38.060Z,196.50
2022-12-13T22:38:04.721Z,171.90
2022-12-13T22:40:31.106Z,174.60
2022-12-13T22:42:57.592Z,159.50
2022-12-13T22:45:24.135Z,173.90
2022-12-13T22:47:50.568Z,170.50
2022-12-13T22:50:17.215Z,154.90
2022-12-13T22:52:43.635Z,174.30
2022-12-13T22:55:10.192Z,165.50
2022-12-13T22:57:36.620Z,192.10
2022-12-13T23:00:05.645Z,208.70
2022-12-13T23:02:32.053Z,208.60
2022-12-13T23:04:58.618Z,180.20
2022-12-13T23:07:25.148Z,172.40
2022-12-13T23:09:51.686Z,163.00
2022-12-13T23:12:18.124Z,141.10
2022-12-13T23:14:44.565Z,143.50
2022-12-13T23:17:11.141Z,136.40
2022-12-13T23:19:50.260Z,140.80
2022-12-13T23:22:22.136Z,156.30
2022-12-13T23:24:49.567Z,185.60
2022-12-13T23:27:16.623Z,201.80
2022-12-13T23:29:43.162Z,187.90
2022-12-13T23:32:09.616Z,215.60
2022-12-13T23:34:36.052Z,225.40
2022-12-13T23:37:02.457Z,235.80
2022-12-13T23:39:28.914Z,219.30
2022-12-13T23:41:55.454Z,240.70
2022-12-13T23:44:22.029Z,266.50
2022-12-13T23:46:49.142Z,281.50
2022-12-13T23:49:16.845Z,209.00
2022-12-13T23:51:43.438Z,152.30
2022-12-13T23:54:11.030Z,125.60
2022-12-13T23:56:37.429Z,124.20
2022-12-13T23:59:03.846Z,115.20
